Hovedside
METAR-TAF:

METAR-TAF

Lufthavner :

Sindal, Danmark

breddegrad: 57-30N, lengdegrad: 010-13E, høyde over havet: 28 m

Gjeldene værobservasjon

Denne rapporten ble laget for 2 timer og 35 minutter siden, klokken 11:50 UTC
Vind 6 kt fra Sør-sørøst
Temperatur 8°C
Luftfuktighet 93%
Trykk 995 hPa
Sikt: 4500 m
Spredte skyer i en høyde av 300 ft
Brutte skyer i en høyde av 500 ft
dis

METAR: EKSN 221150Z 16006KT 4500 BR SCT003 BKN005 08/07 Q0995

Tid: 15:25 (14:25 UTC)

Varsel

Denne rapporten ble laget for 5 timer og 26 minutter siden, klokken 08:59 UTC
Varsel gyldig fra 22. klokken 09 UTC til 22. klokken 14 UTC
Vind 15 kt fra Øst-sørøst
Sikt: 6000 m
Brutte skyer i en høyde av 1000 ft
Midlertidig
fra 22. klokken 09 UTC til 22. klokken 14 UTC
Sikt: 4000 m
Brutte skyer i en høyde av 400 ft
regn, duskregn, dis
Blir
fra 22. klokken 09 UTC til 22. klokken 11 UTC
Vind 12 kt fra Sør

TAF: EKSN 220859Z 2209/2214 12015KT 6000 BKN010 TEMPO 2209/2214 4000 RADZ BR BKN004 BECMG 2209/2211 18012KT

Værobservasjoner og værvarsel for over 4000 flyplasser (METAR- og TAF-rapporter).

Tilgjengelige stasjoner er representert av de røde og gule prikkene på kartet.

Hold musepekeren over prikken for å se navnet på stasjonen.

Klikk så for å se værobservasjoner og -varsler.

For å forandre kartet kan du klikke på den grønne knappen med svart kryss for å zoome inn, på den grønne knappen med strek for å zoome ut, eller på de grønne pilene for å se tilstøtende kart.


METAR-TAF: